Terminal Aerodrome Forecast
Issued by NWS

Home | Current Version | Previous Version | Text Only | Print | Product List | Glossary On
Versions: 1 2 3 4 5 6 7 8 9 10 11 12 13 14
755
FTUS44 KBMX 272323
TAFTOI
TAF
KTOI 272323Z 2800/2824 20005KT P6SM SCT050
     FM281400 24010KT P6SM BKN035
     FM281800 24010KT P6SM SCT050=

USA.gov is the U.S. government's official web portal to all federal, state and local government web resources and services.